METAR Data
IDs: Format: Raw Decoded Include TAF

Data at: 0724 UTC 11 Dec 2018

PANT 110653Z AUTO 15025G46KT 8SM -RA OVC021 07/05 A2914 RMK PK WND 15047/0606 SLP870 P0006 T00670050 TSNO VIA AUTODIAL
PANT 110553Z AUTO 15024G50KT 8SM -RA OVC021 06/05 A2919 RMK PK WND 14050/0544 SLP886 P0002 60050 T00610050 10061 20056 58056 TSNO VIA AUTODIAL
PANT 110453Z AUTO 14027G43KT 4SM -RA BR OVC017 06/06 A2925 RMK PK WND 14049/0412 PRESFR SLP906 P0008 T00610056 TSNO VIA AUTODIAL
PANT 110431Z AUTO 14027G44KT 3SM -RA BR BKN015 OVC021 06/06 A2928 RMK PK WND 14049/0412 PRESFR P0007 T00560056 TSNO VIA AUTODIAL
PANT 110418Z AUTO 14027G49KT 2 1/2SM -RA BR OVC015 06/06 A2930 RMK PK WND 14049/0412 P0004 T00560056 TSNO VIA AUTODIAL
PANT 110414Z AUTO 14026G49KT 3SM -RA BR OVC014 06/06 A2930 RMK PK WND 14049/0412 P0004 T00560056 TSNO VIA AUTODIAL
PANT 110353Z AUTO 15023G45KT 2 1/2SM RA BR BKN014 OVC019 06/05 A2933 RMK PK WND 15047/0330 SLP931 P0012 T00610050 TSNO VIA AUTODIAL
PANT 110344Z AUTO 15024G34KT 2 1/2SM RA BR BKN014 OVC021 06/06 A2933 RMK PK WND 15047/0330 P0010 T00610056 TSNO VIA AUTODIAL
PANT 110339Z AUTO 14020G47KT 3SM RA BR BKN016 OVC021 06/06 A2934 RMK PK WND 15047/0330 P0009 T00560056 TSNO VIA AUTODIAL
PANT 110328Z AUTO 14023G38KT 2 1/2SM RA BR BKN018 OVC024 06/05 A2934 RMK PK WND 13041/0301 P0008 T00560050 TSNO VIA AUTODIAL
PANT 110253Z AUTO 14021G40KT 4SM RA BR OVC018 06/04 A2936 RMK PK WND 12047/0205 SLP941 P0010 60028 T00560044 56051 TSNO VIA AUTODIAL
PANT 110153Z AUTO 13022G41KT 6SM RA BR BKN017 OVC023 06/04 A2940 RMK PK WND 14041/0151 SLP955 P0008 T00560044 TSNO VIA AUTODIAL
PANT 110053Z AUTO 13027G37KT 6SM RA BR BKN017 OVC022 06/05 A2945 RMK PK WND 12037/0051 SLP974 P0010 T00610050 TSNO VIA AUTODIAL
PANT 102353Z AUTO 12022G32KT 4SM RA BR SCT016 OVC023 06/05 A2951 RMK PK WND 16037/2315 PRESFR SLP992 P0010 60031 T00610050 10072 20061 58061 TSNO VIA AUTODIAL
PANT 102253Z AUTO 14024G39KT 7SM -RA BKN024 OVC029 07/04 A2957 RMK PK WND 11042/2240 SLP014 P0004 T00670044 TSNO VIA AUTODIAL
PANT 102153Z AUTO 14021G36KT 7SM -RA FEW018 OVC027 06/05 A2963 RMK PK WND 13040/2110 SLP036 P0005 T00610050 TSNO VIA AUTODIAL
PANT 102053Z AUTO 14018G34KT 6SM RA BR BKN019 OVC025 06/05 A2969 RMK PK WND 14035/2018 SLP054 P0007 60012 T00610050 58031 TSNO VIA AUTODIAL
PANT 101953Z AUTO 14020G33KT 8SM -RA FEW017 OVC024 07/05 A2972 RMK PK WND 15033/1953 SLP066 P0003 T00670050 TSNO VIA AUTODIAL
PANT 101853Z AUTO 14014G27KT 10SM -RA BKN021 BKN026 OVC034 07/04 A2976 RMK PK WND 13030/1840 SLP079 P0002 T00720044 TSNO VIA AUTODIAL
PANT 101804Z AUTO 14014G25KT 7SM -RA BKN019 OVC036 07/05 A2978 RMK P0001 T00670050 TSNO VIA AUTODIAL
PANT 101753Z AUTO 15014G25KT 8SM -RA SCT018 SCT025 OVC038 07/05 A2978 RMK PK WND 13027/1716 SLP084 P0000 60000 T00670050 10072 20067 57015 TSNO VIA AUTODIAL
PANT 101453Z AUTO 16009G17KT 10SM FEW023 BKN060 OVC100 07/03 A2982 RMK SLP099 T00720033 58013 TSNO VIA AUTODIAL
PANT 100553Z AUTO 00000KT 10SM SCT027 BKN034 BKN060 06/04 A2975 RMK SLP074 60020 T00610044 10083 20061 53058 TSNO VIA AUTODIAL
PANT 100053Z AUTO 15007KT 10SM -RA FEW008 OVC013 07/07 A2956 RMK RAE09B48 SLP009 P0001 T00720072 TSNO VIA AUTODIAL
PANT 100032Z AUTO 13008KT 10SM SCT006 BKN010 OVC034 07/07 A2954 RMK RAE09 P0001 T00670067 TSNO VIA AUTODIAL
PANT 100015Z AUTO 13009KT 10SM OVC009 06/06 A2954 RMK RAE09 P0001 T00610061 TSNO VIA AUTODIAL
PANT 092353Z AUTO 12010KT 4SM -RA BR BKN012 OVC019 06/06 A2953 RMK SLP000 P0012 60026 T00610061 10089 20056 53007 TSNO VIA AUTODIAL
PANT 092333Z AUTO 12008KT 5SM -RA BR FEW016 OVC027 06/06 A2953 RMK P0011 T00610056 TSNO VIA AUTODIAL
PANT 092302Z AUTO 12013KT 3SM +RA BR FEW007 SCT012 OVC032 06/06 A2951 RMK P0004 T00610061 TSNO VIA AUTODIAL
PANT 092300Z AUTO 13012KT 4SM +RA BR FEW008 BKN012 OVC034 07/06 A2951 RMK P0003 T00670061 TSNO VIA AUTODIAL
PANT 092253Z AUTO 12013G21KT 4SM RA BR SCT010 BKN015 OVC034 07/06 A2951 RMK SLP992 P0009 T00670061 TSNO VIA AUTODIAL
PANT 092251Z AUTO 13015G21KT 4SM RA BR FEW010 BKN015 OVC034 07/06 A2950 RMK P0008 TSNO VIA AUTODIAL
PANT 092227Z AUTO 12012G18KT 10SM -RA BKN012 OVC023 07/07 A2949 RMK P0005 T00670067 TSNO VIA AUTODIAL
PANT 092216Z AUTO 12010G19KT 2SM RA BR FEW012 BKN017 OVC031 07/07 A2949 RMK P0004 T00670067 TSNO VIA AUTODIAL
PANT 092153Z AUTO 12014KT 10SM -RA OVC018 07/06 A2950 RMK PK WND 15026/2131 RAE2059B49 SLP989 P0000 T00720061 TSNO VIA AUTODIAL
PANT 092125Z AUTO 14014G24KT 10SM SCT019 BKN024 OVC042 08/07 A2950 RMK RAE2059 P0000 T00830067 TSNO VIA AUTODIAL
PANT 092112Z AUTO 15013G24KT 10SM FEW018 SCT026 OVC042 08/07 A2951 RMK RAE2059 P0000 T00830067 TSNO VIA AUTODIAL
PANT 091953Z AUTO 15015G22KT 10SM BKN013 OVC039 09/08 A2950 RMK PK WND 13028/1900 RAE04B25E48 SLP991 P0001 T00890078 TSNO VIA AUTODIAL
PANT 091949Z AUTO 14014G22KT 10SM BKN013 BKN017 OVC039 08/08 A2950 RMK PK WND 13028/1900 RAE04B25E48 P0001 TSNO VIA AUTODIAL